Houlton, Houlton International Airport (KHUL)

NameHoulton International Airport
CityHoulton
CountryUnited States
ICAOKHUL
IATAHUL
Altitude149 m
CoordinatesGoogle Map
Live Air TrafficLiveATC.net
METARKHUL 070053Z AUTO 23004KT 10SM CLR M08/M11 A2993 RMK AO2 SLP146 T10781111
2019-12-07 00:53:00 Wind: Southwest (230°) 2.06 m/s - Visibility: 16093.4 m - Temperature: -8 °C - Dew point: -11 °C - Humidity: 79.3% - Pressure: 1013.55 hPa
Statistics

The table below shows the detailed information of all flights to/from Houlton, Houlton International Airport (KHUL).